Latest Weather Observations for Port Fairy

IDV60801

Issued at 9:42 am EDT Thursday 23 January 2020 (issued every 10 minutes, with the page automatically refreshed every 10 minutes)

About weather observations | Map of weather stations | Latest weather observations for VIC | Other Formats
Station Details ID: 090175 Name: PORT FAIRY AWS Lat: -38.39 Lon: 142.23 Height: 10.0 m
Data from the previous 72 hours. | See also: Recent months at Port Fairy
Date/Time
EDT
Temp
°C
App
Temp
°C
Dew
Point
°C
Rel
Hum
%
Delta-T
°C
Wind Press
QNH
hPa
Press
MSL
hPa
Rain since
9am
mm
Dir  Spd
km/h
Gust
km/h
Spd
kts
Gust
kts
23/09:30am 13.8 - - - - NNW 24 39 13 21 994.0 994.0 0.0
23/09:00am 14.2 - - - - NNW 28 48 15 26 993.6 993.6 7.4
23/08:56am 14.0 - - - - NNW 30 48 16 26 993.5 993.5 7.4
23/08:30am 14.1 - - - - NNW 22 37 12 20 993.7 993.7 7.4
23/08:00am 12.6 - - - - NNW 19 33 10 18 993.9 993.9 7.4
23/07:30am 11.9 - - - - NNW 19 32 10 17 993.6 993.6 7.4
23/07:00am 11.7 - - - - N 19 28 10 15 993.6 993.6 7.4
23/06:30am 11.4 - - - - N 19 30 10 16 993.9 993.9 7.4
23/06:00am 11.2 - - - - N 11 17 6 9 994.1 994.1 7.4
23/05:30am 11.1 - - - - N 13 20 7 11 994.1 994.1 7.4
23/05:00am 11.0 - - - - N 17 26 9 14 994.1 994.1 7.4
23/04:30am 11.0 - - - - N 13 20 7 11 994.8 994.8 7.2
23/04:00am 11.2 - - - - NNW 11 19 6 10 995.3 995.3 6.8
23/03:30am 11.5 - - - - NNW 13 20 7 11 995.9 995.9 6.2
23/03:00am 11.7 - - - - NW 15 24 8 13 996.3 996.3 6.0
23/02:30am 12.5 - - - - NNW 11 20 6 11 996.9 996.9 6.0
23/02:00am 12.9 - - - - NNW 11 19 6 10 997.4 997.4 5.8
23/01:30am 12.9 - - - - NNW 11 20 6 11 997.8 997.8 5.4
23/01:00am 13.1 - - - - NNW 11 17 6 9 998.0 998.0 5.0
23/12:30am 13.2 - - - - NNW 9 17 5 9 998.1 998.1 4.6
23/12:00am 13.3 - - - - N 11 17 6 9 998.0 998.0 4.0
 
Date/Time
EDT
Temp
°C
App
Temp
°C
Dew
Point
°C
Rel
Hum
%
Delta-T
°C
Wind Press
QNH
hPa
Press
MSL
hPa
Rain since
9am
mm
Dir  Spd
km/h
Gust
km/h
Spd
kts
Gust
kts
22/11:30pm 13.4 - - - - N 15 22 8 12 998.6 998.6 3.6
22/11:00pm 13.5 - - - - N 13 19 7 10 999.1 999.1 3.4
22/10:30pm 13.6 - - - - N 13 20 7 11 998.8 998.8 3.0
22/10:00pm 13.7 - - - - NNE 7 13 4 7 998.8 998.8 2.6
22/09:30pm 13.9 - - - - NNE 9 13 5 7 998.6 998.6 2.4
22/09:00pm 14.0 - - - - NNE 7 11 4 6 997.9 997.9 2.4
22/08:30pm 14.1 - - - - N 6 9 3 5 998.1 998.1 2.2
22/08:00pm 14.3 - - - - NNW 4 7 2 4 998.1 998.1 2.2
22/07:30pm 14.4 - - - - NNW 9 15 5 8 998.0 998.0 2.0
22/07:00pm 14.5 - - - - NW 7 11 4 6 997.9 997.9 1.8
22/06:30pm 14.4 - - - - NNW 11 19 6 10 997.8 997.8 1.6
22/06:00pm 14.9 - - - - NW 11 20 6 11 997.9 997.9 1.4
22/05:30pm 15.1 - - - - WNW 13 22 7 12 997.3 997.3 1.2
22/05:00pm 15.5 - - - - WNW 13 22 7 12 997.7 997.7 1.2
22/04:30pm 15.8 - - - - WNW 20 32 11 17 997.6 997.6 1.0
22/04:00pm 15.5 - - - - W 20 30 11 16 997.6 997.6 0.8
22/03:30pm 15.8 - - - - W 20 30 11 16 997.7 997.7 0.8
22/03:00pm 16.1 - - - - W 24 33 13 18 997.9 997.9 0.4
22/02:30pm 17.1 - - - - W 32 46 17 25 998.0 998.0 0.0
22/02:00pm 19.1 - - - - WSW 26 35 14 19 997.4 997.4 0.0
22/01:30pm 20.3 - - - - WSW 24 32 13 17 996.6 996.6 0.0
22/01:00pm 20.1 - - - - WSW 28 39 15 21 996.8 996.8 0.0
22/12:35pm 20.1 - - - - W 28 56 15 30 996.2 996.2 0.0
22/12:30pm 21.1 - - - - W 22 39 12 21 996.2 996.2 0.0
22/12:22pm 24.0 - - - - NW 33 61 18 33 996.6 996.6 0.0
22/12:19pm 29.2 - - - - NNW 37 61 20 33 996.2 996.2 0.0
22/12:00pm 29.3 - - - - NNW 44 74 24 40 994.9 994.9 0.0
22/11:30am 31.0 - - - - N 41 72 22 39 994.7 994.7 0.0
22/11:00am 29.7 - - - - N 37 63 20 34 995.2 995.2 0.0
22/10:30am 27.7 23.9 18.1 56 6.1 N 35 57 19 31 995.7 995.7 0.0
22/10:00am 27.1 24.0 18.4 59 5.6 N 32 54 17 29 996.1 996.1 0.0
22/09:30am 26.8 23.2 19.4 64 4.8 N 37 57 20 31 996.4 996.4 0.0
22/09:19am 26.9 24.3 20.0 66 4.5 N 33 54 18 29 996.4 996.4 0.0
22/09:00am 24.9 23.3 19.3 71 3.6 N 26 43 14 23 996.8 996.8 0.0
22/08:30am 21.0 21.4 18.2 84 1.7 N 13 19 7 10 997.4 997.4 0.0
22/08:00am 17.8 18.1 16.1 90 1.0 NNE 9 13 5 7 997.4 997.4 0.0
22/07:30am 16.4 16.5 15.6 95 0.5 NNE 9 15 5 8 997.5 997.5 0.0
22/07:00am 15.2 15.0 14.6 96 0.3 NNE 9 13 5 7 997.9 997.9 0.0
22/06:30am 14.9 14.6 14.4 97 0.3 NNE 9 13 5 7 998.3 998.3 0.0
22/06:00am 14.9 14.7 14.7 99 0.1 NNE 9 13 5 7 998.4 998.4 0.0
22/05:30am 14.8 14.6 14.8 100 0.0 N 9 15 5 8 998.9 998.9 0.0
22/05:00am 14.2 13.5 14.2 100 0.0 NNE 11 17 6 9 999.3 999.3 0.0
22/04:30am 13.7 12.8 13.7 100 0.0 NNE 11 17 6 9 999.6 999.6 0.0
22/04:00am 13.3 11.5 13.3 100 0.0 NNE 15 22 8 12 1000.3 1000.3 0.0
22/03:30am 13.0 11.5 13.0 100 0.0 NNE 13 19 7 10 1000.8 1000.8 0.0
22/03:00am 13.2 11.4 13.2 100 0.0 NNE 15 20 8 11 1001.6 1001.6 0.0
22/02:30am 13.3 11.9 13.3 100 0.0 NE 13 22 7 12 1002.0 1002.0 0.0
22/02:00am 13.7 12.0 13.7 100 0.0 NE 15 22 8 12 1002.7 1002.7 0.0
22/01:30am 14.3 13.2 14.3 100 0.0 NE 13 17 7 9 1003.4 1003.4 0.0
22/01:00am 14.8 14.3 14.8 100 0.0 NE 11 24 6 13 1004.1 1004.1 0.0
22/12:30am 14.7 14.9 14.7 100 0.0 E 7 9 4 5 1004.6 1004.6 0.0
22/12:00am 14.7 14.5 14.7 100 0.0 E 9 13 5 7 1005.2 1005.2 0.0
 
Date/Time
EDT
Temp
°C
App
Temp
°C
Dew
Point
°C
Rel
Hum
%
Delta-T
°C
Wind Press
QNH
hPa
Press
MSL
hPa
Rain since
9am
mm
Dir  Spd
km/h
Gust
km/h
Spd
kts
Gust
kts
21/11:30pm 14.5 14.2 14.5 100 0.0 E 9 17 5 9 1005.5 1005.5 0.0
21/11:00pm 14.4 14.5 14.4 100 0.0 E 7 13 4 7 1005.8 1005.8 0.0
21/10:30pm 14.7 13.4 14.7 100 0.0 ESE 15 20 8 11 1006.6 1006.6 0.0
21/10:00pm 14.6 14.4 14.6 100 0.0 ESE 9 13 5 7 1006.5 1006.5 0.0
21/09:30pm 14.7 14.9 14.7 100 0.0 ESE 7 9 4 5 1006.6 1006.6 0.0
21/09:00pm 15.1 15.1 15.1 100 0.0 ESE 9 13 5 7 1006.3 1006.3 0.0
21/08:30pm 15.7 15.9 15.7 100 0.0 ESE 9 13 5 7 1006.7 1006.7 0.0
21/08:00pm 16.6 16.1 16.0 96 0.4 SE 13 17 7 9 1006.5 1006.5 0.0
21/07:30pm 17.1 16.7 16.3 95 0.5 SE 13 17 7 9 1006.5 1006.5 0.0
21/07:00pm 17.6 17.4 16.8 95 0.5 SSE 13 17 7 9 1006.6 1006.6 0.0
21/06:30pm 17.9 17.5 17.1 95 0.5 SSE 15 20 8 11 1006.8 1006.8 0.0
21/06:00pm 18.4 18.0 17.1 92 0.8 SSE 15 20 8 11 1006.9 1006.9 0.0
21/05:30pm 18.3 17.5 17.0 92 0.8 SSE 17 20 9 11 1007.4 1007.4 0.0
21/05:00pm 19.1 18.9 17.6 91 0.9 S 15 20 8 11 1007.8 1007.8 0.0
21/04:30pm 19.2 19.2 18.0 93 0.7 S 15 22 8 12 1008.2 1008.2 0.0
21/04:00pm 19.1 19.1 18.1 94 0.6 SSW 15 20 8 11 1008.5 1008.5 0.0
21/03:30pm 19.5 19.7 18.5 94 0.6 SSW 15 20 8 11 1008.9 1008.9 0.0
21/03:00pm 18.9 18.8 17.9 94 0.6 S 15 19 8 10 1009.2 1009.2 0.0
21/02:30pm 19.1 19.5 18.1 94 0.6 S 13 19 7 10 1009.4 1009.4 0.0
21/02:00pm 19.5 20.0 18.3 93 0.7 S 13 19 7 10 1009.9 1009.9 0.0
21/01:30pm 19.3 19.9 18.5 95 0.5 S 13 19 7 10 1010.2 1010.2 0.0
21/01:00pm 18.8 19.5 18.0 95 0.5 SSW 11 17 6 9 1010.5 1010.5 0.0
21/12:30pm 18.8 19.8 17.8 94 0.6 SSW 9 15 5 8 1010.8 1010.8 0.0
21/12:00pm 17.6 18.9 17.6 100 0.0 SSW 7 15 4 8 1011.2 1011.2 0.0
21/11:30am 18.6 19.5 18.4 99 0.1 SSW 11 15 6 8 1011.2 1011.2 0.0
21/11:00am 18.3 19.5 18.3 100 0.0 SW 9 13 5 7 1011.3 1011.3 0.0
21/10:30am 17.2 17.6 17.2 100 0.0 WSW 11 15 6 8 1011.5 1011.5 0.0
21/10:00am 17.1 17.8 17.1 100 0.0 SW 9 13 5 7 1011.4 1011.4 0.0
21/09:30am 16.4 16.5 16.4 100 0.0 SW 11 15 6 8 1011.4 1011.4 0.0
21/09:00am 15.9 16.2 15.9 100 0.0 WSW 9 15 5 8 1011.2 1011.2 0.0
21/08:30am 15.5 14.8 15.5 100 0.0 SW 13 17 7 9 1011.0 1011.0 0.0
21/08:00am 15.4 15.1 15.4 100 0.0 SSW 11 15 6 8 1010.8 1010.8 0.0
21/07:30am 15.1 14.3 15.1 100 0.0 SSW 13 17 7 9 1010.5 1010.5 0.0
21/07:00am 14.8 13.5 14.8 100 0.0 SW 15 20 8 11 1010.2 1010.2 0.0
21/06:30am 14.5 13.1 14.5 100 0.0 SW 15 20 8 11 1010.0 1010.0 0.0
21/06:00am 14.1 12.9 14.1 100 0.0 SW 13 19 7 10 1009.8 1009.8 0.0
21/05:30am 14.2 13.1 14.2 100 0.0 SSW 13 17 7 9 1009.7 1009.7 0.0
21/05:00am 14.3 12.8 14.3 100 0.0 SSW 15 20 8 11 1009.6 1009.6 0.0
21/04:30am 14.5 12.7 14.5 100 0.0 SSW 17 24 9 13 1009.5 1009.5 0.0
21/04:00am 14.5 12.7 14.5 100 0.0 SSW 17 26 9 14 1009.5 1009.5 0.0
21/03:30am 14.3 12.1 14.3 100 0.0 SSW 19 26 10 14 1009.7 1009.7 0.0
21/03:00am 14.4 12.6 14.4 100 0.0 SSW 17 26 9 14 1009.9 1009.9 0.0
21/02:30am 14.2 12.3 14.2 100 0.0 SSW 17 24 9 13 1010.0 1010.0 0.0
21/02:00am 14.5 12.7 14.5 100 0.0 SSW 17 24 9 13 1010.3 1010.3 0.0
21/01:30am 14.6 12.3 14.6 100 0.0 SSW 20 28 11 15 1010.5 1010.5 0.0
21/01:00am 14.9 13.3 14.9 100 0.0 SSW 17 24 9 13 1010.8 1010.8 0.0
21/12:30am 15.1 13.5 15.1 100 0.0 S 17 24 9 13 1010.9 1010.9 0.0
21/12:00am 15.1 13.5 15.1 100 0.0 SSW 17 24 9 13 1011.1 1011.1 0.0
 
Date/Time
EDT
Temp
°C
App
Temp
°C
Dew
Point
°C
Rel
Hum
%
Delta-T
°C
Wind Press
QNH
hPa
Press
MSL
hPa
Rain since
9am
mm
Dir  Spd
km/h
Gust
km/h
Spd
kts
Gust
kts
20/11:30pm 15.1 13.5 15.1 100 0.0 SSW 17 24 9 13 1011.2 1011.2 0.0
20/11:00pm 15.0 13.8 15.0 100 0.0 S 15 24 8 13 1011.4 1011.4 0.0
20/10:30pm 15.2 13.7 15.2 100 0.0 S 17 22 9 12 1011.4 1011.4 0.0
20/10:00pm 15.1 13.5 15.1 100 0.0 S 17 26 9 14 1011.2 1011.2 0.0
20/09:30pm 15.2 13.1 15.2 100 0.0 SSW 20 28 11 15 1010.8 1010.8 0.0
20/09:00pm 15.3 13.2 15.3 100 0.0 SSW 20 30 11 16 1010.7 1010.7 0.0
20/08:30pm 15.4 13.4 15.4 100 0.0 S 20 28 11 15 1010.3 1010.3 0.0
20/08:00pm 15.7 14.0 15.7 100 0.0 S 19 26 10 14 1010.0 1010.0 0.0
20/07:30pm 15.7 14.4 15.7 100 0.0 S 17 26 9 14 1009.6 1009.6 0.0
20/07:00pm 15.6 13.6 15.6 100 0.0 S 20 28 11 15 1009.5 1009.5 0.0
20/06:30pm 15.4 13.4 15.4 100 0.0 S 20 28 11 15 1009.4 1009.4 0.0
20/06:00pm 15.5 13.7 15.5 100 0.0 S 19 28 10 15 1009.2 1009.2 0.0
20/05:30pm 16.0 14.2 16.0 100 0.0 S 20 32 11 17 1009.1 1009.1 0.0
20/05:00pm 16.0 13.4 16.0 100 0.0 S 24 35 13 19 1008.9 1008.9 0.0
20/04:30pm 16.3 14.2 16.3 100 0.0 S 22 32 12 17 1008.9 1008.9 0.0
20/04:00pm 16.0 13.4 16.0 100 0.0 SSE 24 33 13 18 1008.9 1008.9 0.0
20/03:30pm 16.3 13.5 16.3 100 0.0 S 26 35 14 19 1008.9 1008.9 0.0
20/03:00pm 16.5 12.4 16.5 100 0.0 SSE 33 43 18 23 1008.7 1008.7 0.0
20/02:30pm 16.3 12.1 16.3 100 0.0 SSE 33 44 18 24 1008.6 1008.6 0.0
20/02:00pm 16.5 12.6 16.5 100 0.0 SSE 32 43 17 23 1008.7 1008.7 0.0
20/01:30pm 16.5 12.4 16.5 100 0.0 SSE 33 43 18 23 1008.7 1008.7 0.0
20/01:00pm 16.7 12.3 16.7 100 0.0 SSE 35 46 19 25 1008.7 1008.7 0.0
20/12:30pm 16.2 12.0 16.2 100 0.0 SSE 33 44 18 24 1008.8 1008.8 0.0
20/12:00pm 16.2 12.0 16.2 100 0.0 SSE 33 44 18 24 1008.7 1008.7 0.0
20/11:30am 15.9 11.6 15.9 100 0.0 SSE 33 44 18 24 1008.6 1008.6 0.0
20/11:00am 16.0 11.4 16.0 100 0.0 SSE 35 44 19 24 1008.4 1008.4 0.0
20/10:30am 16.1 11.5 16.1 100 0.0 SSE 35 46 19 25 1008.4 1008.4 0.0
20/10:00am 15.7 10.9 15.7 100 0.0 SSE 35 48 19 26 1008.5 1008.5 0.0

Other formats

Comma delimited format used in spreadsheet applications
http://www.bom.gov.au/fwo/IDV60801/IDV60801.94830.axf

JavaScript Object Notation format (JSON) in row-major order
http://www.bom.gov.au/fwo/IDV60801/IDV60801.94830.json

Data quality

Most of these data are generated automatically and are frequently updated. Quality checks on data are not normally performed. It is possible for incorrect values to appear. Refer to information at About Latest Weather Observations and please check the disclaimer before using these data.